sensor_id;sensor_type;location;lat;lon;timestamp;pressure;altitude;pressure_sealevel;temperature;humidity
66479;BME280;53294;47.912;13.526;2023-02-10T00:00:16;97860.91;;;-1.66;48.94
66479;BME280;53294;47.912;13.526;2023-02-10T00:02:43;97859.50;;;-1.53;48.40
66479;BME280;53294;47.912;13.526;2023-02-10T00:05:10;97856.53;;;-1.50;48.22
66479;BME280;53294;47.912;13.526;2023-02-10T00:07:36;97857.06;;;-1.78;49.54
66479;BME280;53294;47.912;13.526;2023-02-10T00:10:03;97861.28;;;-1.69;48.38
66479;BME280;53294;47.912;13.526;2023-02-10T00:12:30;97861.53;;;-1.87;49.50
66479;BME280;53294;47.912;13.526;2023-02-10T00:14:56;97863.56;;;-1.66;48.23
66479;BME280;53294;47.912;13.526;2023-02-10T00:17:23;97853.28;;;-1.60;48.39
66479;BME280;53294;47.912;13.526;2023-02-10T00:19:49;97860.66;;;-1.56;48.30
66479;BME280;53294;47.912;13.526;2023-02-10T00:22:16;97860.03;;;-1.58;48.38
66479;BME280;53294;47.912;13.526;2023-02-10T00:24:43;97865.94;;;-1.79;49.04
66479;BME280;53294;47.912;13.526;2023-02-10T00:27:09;97869.78;;;-1.90;48.67
66479;BME280;53294;47.912;13.526;2023-02-10T00:29:36;97870.50;;;-1.73;48.78
66479;BME280;53294;47.912;13.526;2023-02-10T00:32:03;97878.94;;;-1.54;47.41
66479;BME280;53294;47.912;13.526;2023-02-10T00:34:29;97885.28;;;-1.64;48.36
66479;BME280;53294;47.912;13.526;2023-02-10T00:36:56;97886.22;;;-1.56;47.71
66479;BME280;53294;47.912;13.526;2023-02-10T00:39:23;97897.56;;;-1.79;49.01
66479;BME280;53294;47.912;13.526;2023-02-10T00:41:49;97902.41;;;-2.62;51.85
66479;BME280;53294;47.912;13.526;2023-02-10T00:44:16;97903.31;;;-2.07;49.66
66479;BME280;53294;47.912;13.526;2023-02-10T00:46:43;97897.91;;;-1.82;48.18
66479;BME280;53294;47.912;13.526;2023-02-10T00:49:10;97908.22;;;-1.95;49.63
66479;BME280;53294;47.912;13.526;2023-02-10T00:51:37;97901.13;;;-2.26;49.80
66479;BME280;53294;47.912;13.526;2023-02-10T00:54:04;97898.56;;;-2.11;49.61
66479;BME280;53294;47.912;13.526;2023-02-10T00:56:31;97911.38;;;-2.08;49.33
66479;BME280;53294;47.912;13.526;2023-02-10T00:58:57;97906.91;;;-2.00;49.26
66479;BME280;53294;47.912;13.526;2023-02-10T01:01:24;97905.22;;;-1.92;48.62
66479;BME280;53294;47.912;13.526;2023-02-10T01:03:50;97908.44;;;-1.82;48.25
66479;BME280;53294;47.912;13.526;2023-02-10T01:06:17;97901.72;;;-1.85;48.73
66479;BME280;53294;47.912;13.526;2023-02-10T01:08:44;97906.34;;;-2.18;49.32
66479;BME280;53294;47.912;13.526;2023-02-10T01:11:13;97890.97;;;-2.06;49.17
66479;BME280;53294;47.912;13.526;2023-02-10T01:13:41;97892.81;;;-2.15;49.13
66479;BME280;53294;47.912;13.526;2023-02-10T01:16:10;97909.19;;;-2.28;50.18
66479;BME280;53294;47.912;13.526;2023-02-10T01:18:39;97896.44;;;-2.16;49.40
66479;BME280;53294;47.912;13.526;2023-02-10T01:21:12;97896.66;;;-1.94;49.04
66479;BME280;53294;47.912;13.526;2023-02-10T01:23:40;97896.56;;;-2.41;50.80
66479;BME280;53294;47.912;13.526;2023-02-10T01:26:08;97898.19;;;-2.31;50.33
66479;BME280;53294;47.912;13.526;2023-02-10T01:28:38;97892.50;;;-2.51;51.63
66479;BME280;53294;47.912;13.526;2023-02-10T01:31:12;97887.06;;;-2.58;51.24
66479;BME280;53294;47.912;13.526;2023-02-10T01:33:39;97884.13;;;-2.63;51.97
66479;BME280;53294;47.912;13.526;2023-02-10T01:36:13;97906.88;;;-2.95;54.54
66479;BME280;53294;47.912;13.526;2023-02-10T01:38:40;97903.22;;;-2.69;53.11
66479;BME280;53294;47.912;13.526;2023-02-10T01:41:08;97891.88;;;-2.62;51.85
66479;BME280;53294;47.912;13.526;2023-02-10T01:44:01;97899.59;;;-2.60;51.37
66479;BME280;53294;47.912;13.526;2023-02-10T01:46:32;97900.34;;;-2.43;50.66
66479;BME280;53294;47.912;13.526;2023-02-10T01:49:08;97896.06;;;-2.36;50.95
66479;BME280;53294;47.912;13.526;2023-02-10T01:51:44;97907.53;;;-2.29;50.54
66479;BME280;53294;47.912;13.526;2023-02-10T01:54:15;97891.81;;;-2.45;50.83
66479;BME280;53294;47.912;13.526;2023-02-10T01:56:42;97900.16;;;-2.33;50.66
66479;BME280;53294;47.912;13.526;2023-02-10T01:59:09;97895.91;;;-2.35;50.35
66479;BME280;53294;47.912;13.526;2023-02-10T02:01:36;97906.50;;;-2.59;51.83
66479;BME280;53294;47.912;13.526;2023-02-10T02:04:03;97911.81;;;-2.76;52.09
66479;BME280;53294;47.912;13.526;2023-02-10T02:06:30;97909.13;;;-2.67;51.70
66479;BME280;53294;47.912;13.526;2023-02-10T02:08:57;97916.38;;;-2.69;51.90
66479;BME280;53294;47.912;13.526;2023-02-10T02:12:05;97905.66;;;-2.51;52.15
66479;BME280;53294;47.912;13.526;2023-02-10T02:14:41;97912.03;;;-2.38;51.12
66479;BME280;53294;47.912;13.526;2023-02-10T02:17:29;97912.38;;;-2.41;51.76
66479;BME280;53294;47.912;13.526;2023-02-10T02:25:57;97929.88;;;-2.73;52.97
66479;BME280;53294;47.912;13.526;2023-02-10T02:34:13;97935.00;;;-2.88;53.56
66479;BME280;53294;47.912;13.526;2023-02-10T02:36:50;97933.84;;;-2.85;52.99
66479;BME280;53294;47.912;13.526;2023-02-10T02:39:18;97933.50;;;-2.82;53.00
66479;BME280;53294;47.912;13.526;2023-02-10T02:41:45;97943.47;;;-2.53;51.23
66479;BME280;53294;47.912;13.526;2023-02-10T02:44:11;97940.53;;;-2.58;52.40
66479;BME280;53294;47.912;13.526;2023-02-10T02:46:48;97944.22;;;-2.92;54.75
66479;BME280;53294;47.912;13.526;2023-02-10T02:52:12;97944.03;;;-2.98;54.43
66479;BME280;53294;47.912;13.526;2023-02-10T02:54:54;97944.03;;;-2.82;53.44
66479;BME280;53294;47.912;13.526;2023-02-10T03:00:20;97953.13;;;-2.37;51.31
66479;BME280;53294;47.912;13.526;2023-02-10T03:02:49;97956.31;;;-2.49;51.83
66479;BME280;53294;47.912;13.526;2023-02-10T03:05:21;97951.53;;;-2.54;52.11
66479;BME280;53294;47.912;13.526;2023-02-10T03:07:48;97961.03;;;-2.37;51.29
66479;BME280;53294;47.912;13.526;2023-02-10T03:10:15;97954.47;;;-2.49;51.66
66479;BME280;53294;47.912;13.526;2023-02-10T03:12:42;97955.50;;;-2.50;51.90
66479;BME280;53294;47.912;13.526;2023-02-10T03:15:09;97963.38;;;-2.50;51.55
66479;BME280;53294;47.912;13.526;2023-02-10T03:17:35;97962.06;;;-2.54;51.38
66479;BME280;53294;47.912;13.526;2023-02-10T03:20:02;97965.34;;;-2.44;51.52
66479;BME280;53294;47.912;13.526;2023-02-10T03:22:29;97959.81;;;-2.65;52.75
66479;BME280;53294;47.912;13.526;2023-02-10T03:24:56;97970.28;;;-2.49;51.67
66479;BME280;53294;47.912;13.526;2023-02-10T03:27:23;97967.00;;;-2.51;51.97
66479;BME280;53294;47.912;13.526;2023-02-10T03:29:49;97961.22;;;-2.46;51.59
66479;BME280;53294;47.912;13.526;2023-02-10T03:32:19;97963.66;;;-2.37;50.94
66479;BME280;53294;47.912;13.526;2023-02-10T03:34:46;97959.59;;;-2.39;51.13
66479;BME280;53294;47.912;13.526;2023-02-10T03:37:12;97964.63;;;-2.29;51.42
66479;BME280;53294;47.912;13.526;2023-02-10T03:39:39;97959.84;;;-2.26;51.32
66479;BME280;53294;47.912;13.526;2023-02-10T03:42:06;97961.16;;;-2.22;51.56
66479;BME280;53294;47.912;13.526;2023-02-10T03:44:33;97960.59;;;-2.09;51.08
66479;BME280;53294;47.912;13.526;2023-02-10T03:46:59;97970.53;;;-2.27;50.81
66479;BME280;53294;47.912;13.526;2023-02-10T03:49:26;97963.31;;;-2.33;51.43
66479;BME280;53294;47.912;13.526;2023-02-10T03:51:53;97971.56;;;-2.28;51.48
66479;BME280;53294;47.912;13.526;2023-02-10T03:54:19;97969.44;;;-2.33;51.68
66479;BME280;53294;47.912;13.526;2023-02-10T03:56:46;97966.34;;;-2.45;52.62
66479;BME280;53294;47.912;13.526;2023-02-10T03:59:12;97975.09;;;-2.69;53.09
66479;BME280;53294;47.912;13.526;2023-02-10T04:01:39;97973.63;;;-2.80;53.66
66479;BME280;53294;47.912;13.526;2023-02-10T04:04:06;97967.81;;;-2.50;52.58
66479;BME280;53294;47.912;13.526;2023-02-10T04:06:32;97979.16;;;-2.42;51.94
66479;BME280;53294;47.912;13.526;2023-02-10T04:08:59;97985.41;;;-2.35;51.68
66479;BME280;53294;47.912;13.526;2023-02-10T04:11:26;97989.66;;;-2.33;51.27
66479;BME280;53294;47.912;13.526;2023-02-10T04:13:52;97994.66;;;-2.63;52.58
66479;BME280;53294;47.912;13.526;2023-02-10T04:16:19;97999.91;;;-2.47;52.62
66479;BME280;53294;47.912;13.526;2023-02-10T04:18:47;97985.41;;;-2.35;51.75
66479;BME280;53294;47.912;13.526;2023-02-10T04:21:15;97991.31;;;-2.32;51.68
66479;BME280;53294;47.912;13.526;2023-02-10T04:23:42;97988.97;;;-2.27;51.85
66479;BME280;53294;47.912;13.526;2023-02-10T04:26:09;97988.81;;;-2.26;52.01
66479;BME280;53294;47.912;13.526;2023-02-10T04:28:35;97991.00;;;-2.46;52.81
66479;BME280;53294;47.912;13.526;2023-02-10T04:31:02;97988.00;;;-2.26;51.96
66479;BME280;53294;47.912;13.526;2023-02-10T04:33:31;97985.69;;;-2.29;52.32
66479;BME280;53294;47.912;13.526;2023-02-10T04:35:58;97984.00;;;-2.14;51.41
66479;BME280;53294;47.912;13.526;2023-02-10T04:38:25;97991.00;;;-2.38;52.75
66479;BME280;53294;47.912;13.526;2023-02-10T04:40:51;97990.19;;;-2.46;52.79
66479;BME280;53294;47.912;13.526;2023-02-10T04:43:18;97987.41;;;-2.53;53.66
66479;BME280;53294;47.912;13.526;2023-02-10T04:45:45;97988.72;;;-2.57;53.79
66479;BME280;53294;47.912;13.526;2023-02-10T04:48:12;97995.44;;;-2.46;53.19
66479;BME280;53294;47.912;13.526;2023-02-10T04:50:41;97985.56;;;-2.44;53.24
66479;BME280;53294;47.912;13.526;2023-02-10T04:53:08;97991.78;;;-2.29;52.59
66479;BME280;53294;47.912;13.526;2023-02-10T04:55:34;97992.25;;;-2.17;52.07
66479;BME280;53294;47.912;13.526;2023-02-10T04:58:01;97995.94;;;-2.43;54.62
66479;BME280;53294;47.912;13.526;2023-02-10T05:00:28;97998.38;;;-2.41;53.68
66479;BME280;53294;47.912;13.526;2023-02-10T05:02:56;97992.97;;;-2.31;53.39
66479;BME280;53294;47.912;13.526;2023-02-10T05:05:23;97997.56;;;-2.33;53.02
66479;BME280;53294;47.912;13.526;2023-02-10T05:07:52;97997.53;;;-2.25;53.20
66479;BME280;53294;47.912;13.526;2023-02-10T05:10:18;97999.81;;;-2.14;52.60
66479;BME280;53294;47.912;13.526;2023-02-10T05:12:45;97994.50;;;-2.06;52.50
66479;BME280;53294;47.912;13.526;2023-02-10T05:15:12;97999.94;;;-2.07;52.88
66479;BME280;53294;47.912;13.526;2023-02-10T05:17:40;97993.16;;;-1.93;52.52
66479;BME280;53294;47.912;13.526;2023-02-10T05:20:07;97993.53;;;-2.05;52.80
66479;BME280;53294;47.912;13.526;2023-02-10T05:22:35;97995.53;;;-2.15;53.24
66479;BME280;53294;47.912;13.526;2023-02-10T05:25:02;98010.44;;;-2.47;55.06
66479;BME280;53294;47.912;13.526;2023-02-10T05:27:29;98007.78;;;-2.39;53.89
66479;BME280;53294;47.912;13.526;2023-02-10T05:29:55;97997.44;;;-2.48;55.36
66479;BME280;53294;47.912;13.526;2023-02-10T05:32:22;98003.75;;;-2.18;53.28
66479;BME280;53294;47.912;13.526;2023-02-10T05:34:49;98013.38;;;-2.42;55.03
66479;BME280;53294;47.912;13.526;2023-02-10T05:37:15;98023.03;;;-2.26;54.06
66479;BME280;53294;47.912;13.526;2023-02-10T05:39:42;98021.84;;;-2.15;53.55
66479;BME280;53294;47.912;13.526;2023-02-10T05:42:08;98025.84;;;-2.27;53.96
66479;BME280;53294;47.912;13.526;2023-02-10T05:44:35;98020.63;;;-2.52;55.55
66479;BME280;53294;47.912;13.526;2023-02-10T05:47:02;98030.03;;;-2.58;55.12
66479;BME280;53294;47.912;13.526;2023-02-10T05:49:29;98026.84;;;-2.37;53.59
66479;BME280;53294;47.912;13.526;2023-02-10T05:51:55;98041.69;;;-2.44;53.79
66479;BME280;53294;47.912;13.526;2023-02-10T05:54:22;98050.25;;;-2.66;55.13
66479;BME280;53294;47.912;13.526;2023-02-10T05:56:49;98053.53;;;-2.56;54.24
66479;BME280;53294;47.912;13.526;2023-02-10T05:59:17;98057.97;;;-2.73;55.52
66479;BME280;53294;47.912;13.526;2023-02-10T06:01:44;98059.44;;;-2.79;55.47
66479;BME280;53294;47.912;13.526;2023-02-10T06:04:11;98056.84;;;-2.62;55.34
66479;BME280;53294;47.912;13.526;2023-02-10T06:06:37;98046.94;;;-2.52;54.65
66479;BME280;53294;47.912;13.526;2023-02-10T06:09:04;98055.19;;;-2.72;55.00
66479;BME280;53294;47.912;13.526;2023-02-10T06:11:31;98058.44;;;-2.45;54.22
66479;BME280;53294;47.912;13.526;2023-02-10T06:13:58;98066.84;;;-2.66;54.93
66479;BME280;53294;47.912;13.526;2023-02-10T06:16:24;98062.72;;;-2.77;55.38
66479;BME280;53294;47.912;13.526;2023-02-10T06:18:51;98069.50;;;-2.82;56.35
66479;BME280;53294;47.912;13.526;2023-02-10T06:21:18;98063.72;;;-2.53;54.39
66479;BME280;53294;47.912;13.526;2023-02-10T06:23:45;98072.59;;;-2.29;53.48
66479;BME280;53294;47.912;13.526;2023-02-10T06:26:12;98084.09;;;-2.30;53.59
66479;BME280;53294;47.912;13.526;2023-02-10T06:28:38;98085.59;;;-2.28;53.73
66479;BME280;53294;47.912;13.526;2023-02-10T06:31:05;98085.75;;;-2.29;53.77
66479;BME280;53294;47.912;13.526;2023-02-10T06:33:34;98091.97;;;-2.22;53.74
66479;BME280;53294;47.912;13.526;2023-02-10T06:36:05;98099.88;;;-2.22;53.81
66479;BME280;53294;47.912;13.526;2023-02-10T06:38:35;98099.06;;;-2.47;54.46
66479;BME280;53294;47.912;13.526;2023-02-10T06:41:03;98096.63;;;-2.32;54.12
66479;BME280;53294;47.912;13.526;2023-02-10T06:43:29;98111.41;;;-2.40;53.77
66479;BME280;53294;47.912;13.526;2023-02-10T06:45:56;98118.19;;;-2.45;54.68
66479;BME280;53294;47.912;13.526;2023-02-10T06:48:23;98123.09;;;-2.59;55.24
66479;BME280;53294;47.912;13.526;2023-02-10T06:50:50;98128.19;;;-2.65;55.44
66479;BME280;53294;47.912;13.526;2023-02-10T06:53:17;98118.34;;;-2.72;56.88
66479;BME280;53294;47.912;13.526;2023-02-10T06:55:43;98124.72;;;-2.82;57.18
66479;BME280;53294;47.912;13.526;2023-02-10T06:58:10;98134.94;;;-2.63;55.67
66479;BME280;53294;47.912;13.526;2023-02-10T07:00:37;98148.59;;;-2.51;56.12
66479;BME280;53294;47.912;13.526;2023-02-10T07:03:04;98148.94;;;-2.62;57.08
66479;BME280;53294;47.912;13.526;2023-02-10T07:05:31;98149.91;;;-2.55;57.45
66479;BME280;53294;47.912;13.526;2023-02-10T07:07:58;98152.22;;;-2.60;57.43
66479;BME280;53294;47.912;13.526;2023-02-10T07:10:29;98161.94;;;-2.61;57.25
66479;BME280;53294;47.912;13.526;2023-02-10T07:12:57;98167.84;;;-2.50;57.78
66479;BME280;53294;47.912;13.526;2023-02-10T07:15:24;98165.38;;;-2.52;57.31
66479;BME280;53294;47.912;13.526;2023-02-10T07:17:51;98160.75;;;-2.58;58.00
66479;BME280;53294;47.912;13.526;2023-02-10T07:20:18;98167.19;;;-2.53;58.62
66479;BME280;53294;47.912;13.526;2023-02-10T07:22:46;98171.63;;;-2.37;57.05
66479;BME280;53294;47.912;13.526;2023-02-10T07:25:13;98171.63;;;-2.37;57.89
66479;BME280;53294;47.912;13.526;2023-02-10T07:27:40;98173.59;;;-2.30;57.53
66479;BME280;53294;47.912;13.526;2023-02-10T07:30:07;98175.59;;;-2.32;57.74
66479;BME280;53294;47.912;13.526;2023-02-10T07:32:34;98179.03;;;-2.24;58.08
66479;BME280;53294;47.912;13.526;2023-02-10T07:35:00;98179.72;;;-2.30;58.33
66479;BME280;53294;47.912;13.526;2023-02-10T07:37:27;98180.03;;;-2.17;57.98
66479;BME280;53294;47.912;13.526;2023-02-10T07:39:54;98186.09;;;-2.00;57.18
66479;BME280;53294;47.912;13.526;2023-02-10T07:42:20;98188.41;;;-1.88;57.01
66479;BME280;53294;47.912;13.526;2023-02-10T07:44:47;98184.56;;;-1.61;55.88
66479;BME280;53294;47.912;13.526;2023-02-10T07:47:14;98184.16;;;-1.41;55.67
66479;BME280;53294;47.912;13.526;2023-02-10T07:49:40;98179.06;;;-1.35;55.97
66479;BME280;53294;47.912;13.526;2023-02-10T07:52:07;98182.13;;;-1.23;55.76
66479;BME280;53294;47.912;13.526;2023-02-10T07:54:34;98188.50;;;-1.09;55.68
66479;BME280;53294;47.912;13.526;2023-02-10T07:57:00;98196.16;;;-1.22;57.14
66479;BME280;53294;47.912;13.526;2023-02-10T07:59:27;98199.25;;;-1.75;61.10
66479;BME280;53294;47.912;13.526;2023-02-10T08:01:54;98205.69;;;-1.77;59.57
66479;BME280;53294;47.912;13.526;2023-02-10T08:04:20;98193.16;;;-1.75;61.38
66479;BME280;53294;47.912;13.526;2023-02-10T08:06:47;98201.22;;;-1.69;62.34
66479;BME280;53294;47.912;13.526;2023-02-10T08:09:14;98198.19;;;-1.41;60.49
66479;BME280;53294;47.912;13.526;2023-02-10T08:11:43;98204.25;;;-1.32;61.54
66479;BME280;53294;47.912;13.526;2023-02-10T08:14:10;98204.41;;;-1.25;61.55
66479;BME280;53294;47.912;13.526;2023-02-10T08:16:37;98201.28;;;-0.89;59.94
66479;BME280;53294;47.912;13.526;2023-02-10T08:19:03;98204.44;;;-0.63;59.89
66479;BME280;53294;47.912;13.526;2023-02-10T08:21:30;98200.00;;;-0.39;60.13
66479;BME280;53294;47.912;13.526;2023-02-10T08:23:57;98205.13;;;-0.69;61.46
66479;BME280;53294;47.912;13.526;2023-02-10T08:26:24;98200.81;;;-0.62;61.32
66479;BME280;53294;47.912;13.526;2023-02-10T08:28:51;98198.06;;;-0.45;61.37
66479;BME280;53294;47.912;13.526;2023-02-10T08:31:21;98199.53;;;-0.20;61.17
66479;BME280;53294;47.912;13.526;2023-02-10T08:33:48;98196.28;;;-0.07;60.53
66479;BME280;53294;47.912;13.526;2023-02-10T08:36:17;98195.63;;;0.14;61.13
66479;BME280;53294;47.912;13.526;2023-02-10T08:38:45;98199.53;;;0.18;60.60
66479;BME280;53294;47.912;13.526;2023-02-10T08:41:12;98202.28;;;0.25;59.90
66479;BME280;53294;47.912;13.526;2023-02-10T08:43:39;98191.91;;;0.39;60.98
66479;BME280;53294;47.912;13.526;2023-02-10T08:46:06;98189.47;;;0.52;59.41
66479;BME280;53294;47.912;13.526;2023-02-10T08:48:33;98193.75;;;0.68;58.54
66479;BME280;53294;47.912;13.526;2023-02-10T08:51:00;98195.66;;;0.74;58.63
66479;BME280;53294;47.912;13.526;2023-02-10T08:53:27;98192.28;;;0.95;57.98
66479;BME280;53294;47.912;13.526;2023-02-10T08:56:06;98195.44;;;1.20;57.51
66479;BME280;53294;47.912;13.526;2023-02-10T08:58:34;98191.06;;;1.49;54.92
66479;BME280;53294;47.912;13.526;2023-02-10T09:01:07;98198.75;;;1.66;56.36
66479;BME280;53294;47.912;13.526;2023-02-10T09:03:33;98196.25;;;2.01;55.63
66479;BME280;53294;47.912;13.526;2023-02-10T09:06:00;98200.28;;;2.53;55.02
66479;BME280;53294;47.912;13.526;2023-02-10T09:08:27;98201.00;;;2.68;54.37
66479;BME280;53294;47.912;13.526;2023-02-10T09:10:53;98198.13;;;2.98;52.41
66479;BME280;53294;47.912;13.526;2023-02-10T09:13:20;98205.78;;;2.80;51.97
66479;BME280;53294;47.912;13.526;2023-02-10T09:15:50;98204.03;;;2.65;52.53
66479;BME280;53294;47.912;13.526;2023-02-10T09:18:17;98209.63;;;3.19;52.98
66479;BME280;53294;47.912;13.526;2023-02-10T09:20:43;98198.53;;;3.84;51.26
66479;BME280;53294;47.912;13.526;2023-02-10T09:23:10;98197.13;;;4.14;50.85
66479;BME280;53294;47.912;13.526;2023-02-10T09:25:36;98202.03;;;3.91;49.10
66479;BME280;53294;47.912;13.526;2023-02-10T09:28:03;98201.44;;;4.02;49.66
66479;BME280;53294;47.912;13.526;2023-02-10T09:30:30;98204.50;;;4.19;49.15
66479;BME280;53294;47.912;13.526;2023-02-10T09:32:57;98197.53;;;4.52;50.17
66479;BME280;53294;47.912;13.526;2023-02-10T09:35:23;98196.22;;;4.94;48.60
66479;BME280;53294;47.912;13.526;2023-02-10T09:37:50;98194.28;;;5.60;46.94
66479;BME280;53294;47.912;13.526;2023-02-10T09:40:21;98197.69;;;5.74;44.34
66479;BME280;53294;47.912;13.526;2023-02-10T09:45:42;98188.47;;;5.38;44.49
66479;BME280;53294;47.912;13.526;2023-02-10T09:48:29;98186.84;;;6.33;42.83
66479;BME280;53294;47.912;13.526;2023-02-10T09:51:31;98185.13;;;6.38;42.58
66479;BME280;53294;47.912;13.526;2023-02-10T09:54:01;98183.56;;;6.74;42.53
66479;BME280;53294;47.912;13.526;2023-02-10T09:56:28;98179.91;;;7.24;42.03
66479;BME280;53294;47.912;13.526;2023-02-10T09:58:56;98184.25;;;6.44;41.49
66479;BME280;53294;47.912;13.526;2023-02-10T10:01:30;98187.78;;;6.63;42.28
66479;BME280;53294;47.912;13.526;2023-02-10T10:04:12;98179.91;;;7.24;42.63
66479;BME280;53294;47.912;13.526;2023-02-10T10:06:41;98185.84;;;6.89;42.48
66479;BME280;53294;47.912;13.526;2023-02-10T10:14:35;98184.75;;;6.35;44.62
66479;BME280;53294;47.912;13.526;2023-02-10T10:27:48;98182.53;;;6.06;45.69
66479;BME280;53294;47.912;13.526;2023-02-10T10:30:30;98187.59;;;6.58;43.75
66479;BME280;53294;47.912;13.526;2023-02-10T10:33:10;98179.25;;;6.29;44.98
66479;BME280;53294;47.912;13.526;2023-02-10T10:35:42;98171.03;;;6.93;42.92
66479;BME280;53294;47.912;13.526;2023-02-10T10:38:22;98180.09;;;6.49;43.14
66479;BME280;53294;47.912;13.526;2023-02-10T10:40:52;98172.38;;;6.40;42.61
66479;BME280;53294;47.912;13.526;2023-02-10T10:43:29;98173.38;;;7.01;41.89
66479;BME280;53294;47.912;13.526;2023-02-10T10:46:06;98168.19;;;7.07;43.36
66479;BME280;53294;47.912;13.526;2023-02-10T10:48:40;98167.81;;;6.66;43.49
66479;BME280;53294;47.912;13.526;2023-02-10T10:51:08;98165.25;;;6.09;43.98
66479;BME280;53294;47.912;13.526;2023-02-10T10:53:45;98164.59;;;6.39;43.55
66479;BME280;53294;47.912;13.526;2023-02-10T10:56:35;98157.09;;;6.73;42.77
66479;BME280;53294;47.912;13.526;2023-02-10T10:59:13;98154.41;;;6.29;44.27
66479;BME280;53294;47.912;13.526;2023-02-10T11:01:42;98151.16;;;6.27;44.59
66479;BME280;53294;47.912;13.526;2023-02-10T11:04:17;98140.31;;;6.84;42.86
66479;BME280;53294;47.912;13.526;2023-02-10T11:06:47;98135.25;;;7.55;41.06
66479;BME280;53294;47.912;13.526;2023-02-10T11:09:23;98128.28;;;8.08;39.58
66479;BME280;53294;47.912;13.526;2023-02-10T11:11:53;98128.41;;;6.80;43.58
66479;BME280;53294;47.912;13.526;2023-02-10T11:14:27;98121.59;;;7.03;41.60
66479;BME280;53294;47.912;13.526;2023-02-10T11:16:58;98111.19;;;8.21;38.74
66479;BME280;53294;47.912;13.526;2023-02-10T11:19:30;98108.00;;;8.71;40.42
66479;BME280;53294;47.912;13.526;2023-02-10T11:22:15;98113.97;;;8.26;39.71
66479;BME280;53294;47.912;13.526;2023-02-10T11:24:58;98126.44;;;7.24;40.43
66479;BME280;53294;47.912;13.526;2023-02-10T11:27:25;98120.50;;;7.52;39.56
66479;BME280;53294;47.912;13.526;2023-02-10T11:29:57;98115.88;;;7.29;40.40
66479;BME280;53294;47.912;13.526;2023-02-10T11:32:28;98111.75;;;7.45;41.00
66479;BME280;53294;47.912;13.526;2023-02-10T11:34:57;98097.09;;;8.49;40.60
66479;BME280;53294;47.912;13.526;2023-02-10T11:37:34;98087.59;;;8.94;38.33
66479;BME280;53294;47.912;13.526;2023-02-10T11:40:05;98081.38;;;9.34;38.64
66479;BME280;53294;47.912;13.526;2023-02-10T11:42:46;98077.00;;;9.96;37.79
66479;BME280;53294;47.912;13.526;2023-02-10T11:45:24;98066.81;;;10.71;36.70
66479;BME280;53294;47.912;13.526;2023-02-10T11:48:10;98054.16;;;10.93;35.50
66479;BME280;53294;47.912;13.526;2023-02-10T11:50:39;98050.41;;;11.49;34.16
66479;BME280;53294;47.912;13.526;2023-02-10T11:53:13;98058.25;;;11.88;34.94
66479;BME280;53294;47.912;13.526;2023-02-10T11:55:52;98052.69;;;12.37;34.26
66479;BME280;53294;47.912;13.526;2023-02-10T12:01:33;98058.06;;;12.32;31.29
66479;BME280;53294;47.912;13.526;2023-02-10T12:05:14;98054.13;;;12.02;32.37
66479;BME280;53294;47.912;13.526;2023-02-10T12:07:27;98046.69;;;12.20;33.57
66479;BME280;53294;47.912;13.526;2023-02-10T12:12:43;98037.25;;;12.81;29.99
66479;BME280;53294;47.912;13.526;2023-02-10T12:26:10;98020.16;;;13.49;31.09
66479;BME280;53294;47.912;13.526;2023-02-10T12:34:43;98012.59;;;13.66;29.57
66479;BME280;53294;47.912;13.526;2023-02-10T12:37:15;98012.88;;;13.54;28.25
66479;BME280;53294;47.912;13.526;2023-02-10T12:48:01;97983.63;;;12.95;28.80
66479;BME280;53294;47.912;13.526;2023-02-10T12:55:48;97979.59;;;13.95;28.36
66479;BME280;53294;47.912;13.526;2023-02-10T12:58:27;97971.53;;;13.74;26.59
66479;BME280;53294;47.912;13.526;2023-02-10T13:01:21;97971.56;;;13.54;27.13
66479;BME280;53294;47.912;13.526;2023-02-10T13:03:54;97970.47;;;13.55;27.23
66479;BME280;53294;47.912;13.526;2023-02-10T13:06:36;97966.41;;;13.21;26.46
66479;BME280;53294;47.912;13.526;2023-02-10T13:12:13;97966.13;;;13.13;27.88
66479;BME280;53294;47.912;13.526;2023-02-10T13:14:42;97960.75;;;13.23;27.49
66479;BME280;53294;47.912;13.526;2023-02-10T13:17:11;97957.75;;;13.29;28.54
66479;BME280;53294;47.912;13.526;2023-02-10T13:35:30;97952.59;;;13.95;27.90
66479;BME280;53294;47.912;13.526;2023-02-10T13:38:04;97959.56;;;14.22;26.90
66479;BME280;53294;47.912;13.526;2023-02-10T13:40:53;97954.78;;;13.82;26.06
66479;BME280;53294;47.912;13.526;2023-02-10T13:43:40;97956.41;;;13.73;27.41
66479;BME280;53294;47.912;13.526;2023-02-10T13:46:23;97959.63;;;13.86;27.81
66479;BME280;53294;47.912;13.526;2023-02-10T13:48:56;97959.66;;;13.70;27.50
66479;BME280;53294;47.912;13.526;2023-02-10T13:51:30;97959.63;;;13.96;27.59
66479;BME280;53294;47.912;13.526;2023-02-10T13:53:58;97964.41;;;14.19;28.03
66479;BME280;53294;47.912;13.526;2023-02-10T13:56:30;97966.41;;;14.59;27.14
66479;BME280;53294;47.912;13.526;2023-02-10T13:59:00;97967.91;;;14.90;28.33
66479;BME280;53294;47.912;13.526;2023-02-10T14:01:47;97964.34;;;14.40;27.89
66479;BME280;53294;47.912;13.526;2023-02-10T14:06:49;97979.41;;;14.67;28.35
66479;BME280;53294;47.912;13.526;2023-02-10T14:12:01;97969.16;;;14.64;29.10
66479;BME280;53294;47.912;13.526;2023-02-10T14:14:33;97959.94;;;14.65;27.04
66479;BME280;53294;47.912;13.526;2023-02-10T14:17:07;97964.84;;;14.47;26.98
66479;BME280;53294;47.912;13.526;2023-02-10T14:19:47;97949.13;;;14.65;27.17
66479;BME280;53294;47.912;13.526;2023-02-10T14:22:27;97956.22;;;14.45;28.55
66479;BME280;53294;47.912;13.526;2023-02-10T14:25:00;97972.38;;;14.55;28.65
66479;BME280;53294;47.912;13.526;2023-02-10T14:27:30;97971.03;;;14.68;27.27
66479;BME280;53294;47.912;13.526;2023-02-10T14:30:19;97971.31;;;14.62;27.45
66479;BME280;53294;47.912;13.526;2023-02-10T14:32:47;97965.63;;;14.68;27.33
66479;BME280;53294;47.912;13.526;2023-02-10T14:37:56;97963.47;;;14.60;27.44
66479;BME280;53294;47.912;13.526;2023-02-10T14:40:25;97957.28;;;14.49;27.07
66479;BME280;53294;47.912;13.526;2023-02-10T14:42:52;97964.97;;;14.82;27.98
66479;BME280;53294;47.912;13.526;2023-02-10T14:45:22;97957.06;;;14.96;27.11